sensor_id;sensor_type;location;lat;lon;timestamp;temperature;humidity
24087;DHT22;22893;50.572;7.234;2023-05-01T20:50:53;22.00;59.20
24087;DHT22;22893;50.572;7.234;2023-05-01T20:53:21;22.00;59.20
24087;DHT22;22893;50.572;7.234;2023-05-01T20:55:48;22.00;59.20
24087;DHT22;22893;50.572;7.234;2023-05-01T20:58:16;22.00;59.20
24087;DHT22;22893;50.572;7.234;2023-05-01T21:00:44;22.00;59.20
24087;DHT22;22893;50.572;7.234;2023-05-01T21:03:11;22.00;59.20
24087;DHT22;22893;50.572;7.234;2023-05-01T21:05:40;22.00;59.10
24087;DHT22;22893;50.572;7.234;2023-05-01T21:08:08;22.00;59.10
24087;DHT22;22893;50.572;7.234;2023-05-01T21:10:35;22.00;59.10
24087;DHT22;22893;50.572;7.234;2023-05-01T21:13:03;22.00;59.20
24087;DHT22;22893;50.572;7.234;2023-05-01T21:15:31;22.00;59.10
24087;DHT22;22893;50.572;7.234;2023-05-01T21:18:00;22.00;59.10
24087;DHT22;22893;50.572;7.234;2023-05-01T21:20:32;22.00;59.20
24087;DHT22;22893;50.572;7.234;2023-05-01T21:23:08;22.00;59.20
24087;DHT22;22893;50.572;7.234;2023-05-01T21:25:36;22.00;59.10
24087;DHT22;22893;50.572;7.234;2023-05-01T21:28:04;22.00;59.10
24087;DHT22;22893;50.572;7.234;2023-05-01T21:30:33;22.00;59.10
24087;DHT22;22893;50.572;7.234;2023-05-01T21:33:12;22.00;59.10
24087;DHT22;22893;50.572;7.234;2023-05-01T21:35:44;22.00;59.10
24087;DHT22;22893;50.572;7.234;2023-05-01T21:38:13;22.00;59.10
24087;DHT22;22893;50.572;7.234;2023-05-01T21:40:41;21.90;59.00
24087;DHT22;22893;50.572;7.234;2023-05-01T21:43:10;22.00;58.90
24087;DHT22;22893;50.572;7.234;2023-05-01T21:45:43;21.90;58.80
24087;DHT22;22893;50.572;7.234;2023-05-01T21:48:15;21.90;58.80
24087;DHT22;22893;50.572;7.234;2023-05-01T21:50:47;21.90;59.00
24087;DHT22;22893;50.572;7.234;2023-05-01T21:53:14;21.90;59.00
24087;DHT22;22893;50.572;7.234;2023-05-01T21:55:45;21.90;59.00
24087;DHT22;22893;50.572;7.234;2023-05-01T21:58:13;21.90;59.00
24087;DHT22;22893;50.572;7.234;2023-05-01T22:00:40;21.90;59.00
24087;DHT22;22893;50.572;7.234;2023-05-01T22:03:08;21.90;59.10
24087;DHT22;22893;50.572;7.234;2023-05-01T22:05:36;21.90;59.00
24087;DHT22;22893;50.572;7.234;2023-05-01T22:08:05;21.90;59.00
24087;DHT22;22893;50.572;7.234;2023-05-01T22:10:33;21.90;59.00
24087;DHT22;22893;50.572;7.234;2023-05-01T22:13:01;21.90;59.00
24087;DHT22;22893;50.572;7.234;2023-05-01T22:15:29;21.90;59.00
24087;DHT22;22893;50.572;7.234;2023-05-01T22:17:56;21.90;59.00
24087;DHT22;22893;50.572;7.234;2023-05-01T22:20:24;21.90;58.90
24087;DHT22;22893;50.572;7.234;2023-05-01T22:22:51;21.90;58.90
24087;DHT22;22893;50.572;7.234;2023-05-01T22:25:19;21.90;58.90
24087;DHT22;22893;50.572;7.234;2023-05-01T22:27:46;21.90;58.90
24087;DHT22;22893;50.572;7.234;2023-05-01T22:30:14;21.90;58.90
24087;DHT22;22893;50.572;7.234;2023-05-01T22:32:41;21.90;58.80
24087;DHT22;22893;50.572;7.234;2023-05-01T22:35:09;21.90;58.80
24087;DHT22;22893;50.572;7.234;2023-05-01T22:37:37;21.90;58.80
24087;DHT22;22893;50.572;7.234;2023-05-01T22:40:05;21.80;58.80
24087;DHT22;22893;50.572;7.234;2023-05-01T22:42:33;21.80;58.70
24087;DHT22;22893;50.572;7.234;2023-05-01T22:45:01;21.80;58.70
24087;DHT22;22893;50.572;7.234;2023-05-01T22:47:29;21.80;58.70
24087;DHT22;22893;50.572;7.234;2023-05-01T22:49:56;21.80;58.70
24087;DHT22;22893;50.572;7.234;2023-05-01T22:52:24;21.80;58.80
24087;DHT22;22893;50.572;7.234;2023-05-01T22:54:52;21.80;58.70
24087;DHT22;22893;50.572;7.234;2023-05-01T22:57:19;21.80;58.70
24087;DHT22;22893;50.572;7.234;2023-05-01T22:59:47;21.80;59.30
24087;DHT22;22893;50.572;7.234;2023-05-01T23:02:15;21.80;58.60
24087;DHT22;22893;50.572;7.234;2023-05-01T23:04:44;21.80;58.70
24087;DHT22;22893;50.572;7.234;2023-05-01T23:07:15;21.80;58.70
24087;DHT22;22893;50.572;7.234;2023-05-01T23:09:43;21.80;58.70
24087;DHT22;22893;50.572;7.234;2023-05-01T23:12:15;21.70;58.70
24087;DHT22;22893;50.572;7.234;2023-05-01T23:14:45;21.70;58.60
24087;DHT22;22893;50.572;7.234;2023-05-01T23:17:13;21.80;58.60
24087;DHT22;22893;50.572;7.234;2023-05-01T23:19:41;21.70;58.50
24087;DHT22;22893;50.572;7.234;2023-05-01T23:22:11;21.70;58.60
24087;DHT22;22893;50.572;7.234;2023-05-01T23:24:46;21.70;58.50
24087;DHT22;22893;50.572;7.234;2023-05-01T23:27:16;21.70;58.50
24087;DHT22;22893;50.572;7.234;2023-05-01T23:29:55;21.70;58.50
24087;DHT22;22893;50.572;7.234;2023-05-01T23:32:29;21.70;58.50
24087;DHT22;22893;50.572;7.234;2023-05-01T23:35:03;21.70;58.40
24087;DHT22;22893;50.572;7.234;2023-05-01T23:37:27;21.70;58.40
24087;DHT22;22893;50.572;7.234;2023-05-01T23:39:55;21.70;58.50
24087;DHT22;22893;50.572;7.234;2023-05-01T23:42:24;21.70;58.50
24087;DHT22;22893;50.572;7.234;2023-05-01T23:44:54;21.70;58.40
24087;DHT22;22893;50.572;7.234;2023-05-01T23:47:22;21.70;58.40
24087;DHT22;22893;50.572;7.234;2023-05-01T23:49:49;21.70;58.50
24087;DHT22;22893;50.572;7.234;2023-05-01T23:52:17;21.70;58.40
24087;DHT22;22893;50.572;7.234;2023-05-01T23:54:44;21.70;58.40
24087;DHT22;22893;50.572;7.234;2023-05-01T23:57:12;21.70;58.40
24087;DHT22;22893;50.572;7.234;2023-05-01T23:59:40;21.60;58.40
